Time;durP1;ratioP1;P1;durP2;ratioP2;P2;SDS_P1;SDS_P2;PMS_P1;PMS_P2;Temp;Humidity;BMP_temperature;BMP_pressure;BME280_temperature;BME280_humidity;BME280_pressure;Samples;Min_cycle;Max_cycle;Signal;HPM_P1;HPM_P2
2023/03/06 00:01:09;;;;;;;80.50;19.08;;;;;;;;;;5071143;28;20628;-69
2023/03/06 00:03:36;;;;;;;79.38;18.55;;;;;;;;;;5070910;28;20205;-68
2023/03/06 00:06:03;;;;;;;79.97;19.10;;;;;;;;;;5070334;28;20232;-69
2023/03/06 00:08:30;;;;;;;83.40;18.48;;;;;;;;;;5070365;28;20209;-69
2023/03/06 00:10:57;;;;;;;83.78;20.05;;;;;;;;;;5070871;28;20205;-69
2023/03/06 00:13:25;;;;;;;82.53;18.95;;;;;;;;;;5071005;28;20201;-69
2023/03/06 00:15:53;;;;;;;84.82;20.48;;;;;;;;;;5070784;28;20229;-68
2023/03/06 00:18:20;;;;;;;83.40;18.52;;;;;;;;;;5070618;28;20211;-69
2023/03/06 00:20:48;;;;;;;80.25;18.70;;;;;;;;;;5070834;28;20209;-69
2023/03/06 00:23:15;;;;;;;83.65;18.95;;;;;;;;;;5070832;28;20216;-69
2023/03/06 00:25:43;;;;;;;83.28;18.95;;;;;;;;;;5070413;28;20239;-68
2023/03/06 00:28:11;;;;;;;86.25;21.45;;;;;;;;;;5072505;28;20673;-69
2023/03/06 00:30:38;;;;;;;84.78;18.73;;;;;;;;;;5071732;28;20576;-69
2023/03/06 00:33:07;;;;;;;81.82;19.52;;;;;;;;;;5074605;28;20205;-69
2023/03/06 00:35:34;;;;;;;89.80;20.48;;;;;;;;;;5074366;28;20235;-69
2023/03/06 00:38:01;;;;;;;87.00;20.73;;;;;;;;;;5074116;28;20205;-69
2023/03/06 00:40:28;;;;;;;80.55;17.70;;;;;;;;;;5073997;28;20207;-69
2023/03/06 00:42:55;;;;;;;83.82;19.30;;;;;;;;;;5074203;28;20205;-68
2023/03/06 00:45:22;;;;;;;86.03;20.60;;;;;;;;;;5074031;28;20225;-69
2023/03/06 00:47:49;;;;;;;86.38;21.70;;;;;;;;;;5073814;28;20324;-68
2023/03/06 00:50:18;;;;;;;84.75;19.40;;;;;;;;;;5073406;28;20209;-69
2023/03/06 00:52:45;;;;;;;82.68;18.80;;;;;;;;;;5074172;28;20211;-69
2023/03/06 00:55:12;;;;;;;83.50;18.30;;;;;;;;;;5073859;28;20209;-68
2023/03/06 00:57:39;;;;;;;83.97;18.13;;;;;;;;;;5073763;28;20597;-69
2023/03/06 01:00:07;;;;;;;85.63;19.27;;;;;;;;;;5073875;28;20216;-69
2023/03/06 01:02:34;;;;;;;83.10;19.50;;;;;;;;;;5073931;28;20200;-70
2023/03/06 01:05:01;;;;;;;86.47;19.13;;;;;;;;;;5074286;28;20217;-69
2023/03/06 01:07:32;;;;;;;90.50;18.45;;;;;;;;;;5070632;28;20205;-69
2023/03/06 01:09:59;;;;;;;85.07;18.35;;;;;;;;;;5072763;28;20197;-69
2023/03/06 01:12:27;;;;;;;87.60;19.67;;;;;;;;;;5073359;28;20513;-69
2023/03/06 01:14:54;;;;;;;84.70;17.92;;;;;;;;;;5073820;28;20208;-68
2023/03/06 01:17:21;;;;;;;84.47;19.05;;;;;;;;;;5073595;28;20612;-69
2023/03/06 01:19:48;;;;;;;81.22;17.58;;;;;;;;;;5073145;28;20201;-69
2023/03/06 01:22:15;;;;;;;82.68;18.10;;;;;;;;;;5073377;28;20205;-69
2023/03/06 01:24:43;;;;;;;84.28;19.50;;;;;;;;;;5073357;28;20224;-68
2023/03/06 01:27:11;;;;;;;80.25;17.27;;;;;;;;;;5072853;28;20685;-68
2023/03/06 01:29:38;;;;;;;81.38;17.75;;;;;;;;;;5072649;28;20201;-69
2023/03/06 01:32:05;;;;;;;82.60;17.30;;;;;;;;;;5073279;28;20586;-69
2023/03/06 01:34:32;;;;;;;88.32;18.80;;;;;;;;;;5073702;28;20205;-69
2023/03/06 01:36:59;;;;;;;82.63;18.20;;;;;;;;;;5073167;28;20233;-68
2023/03/06 01:39:27;;;;;;;80.13;18.42;;;;;;;;;;5068711;28;20669;-69
2023/03/06 01:41:55;;;;;;;83.35;18.52;;;;;;;;;;5073039;28;20212;-69
2023/03/06 01:44:23;;;;;;;81.30;17.00;;;;;;;;;;5073081;28;20209;-68
2023/03/06 01:46:50;;;;;;;76.50;17.35;;;;;;;;;;5072587;28;20225;-69
2023/03/06 01:49:19;;;;;;;81.22;17.42;;;;;;;;;;5071872;28;20696;-69
2023/03/06 01:51:49;;;;;;;79.35;18.58;;;;;;;;;;5072458;28;20209;-69
2023/03/06 01:54:21;;;;;;;76.40;17.15;;;;;;;;;;5073224;28;20212;-70
2023/03/06 01:56:49;;;;;;;82.63;16.55;;;;;;;;;;5072807;28;20588;-69
2023/03/06 01:59:17;;;;;;;82.38;18.75;;;;;;;;;;5072451;28;20209;-70
2023/03/06 02:01:45;;;;;;;80.60;17.15;;;;;;;;;;5072771;28;20237;-69
2023/03/06 02:04:12;;;;;;;81.13;17.77;;;;;;;;;;5072613;28;20205;-70
2023/03/06 02:06:41;;;;;;;79.53;17.55;;;;;;;;;;5072415;28;20590;-69
2023/03/06 02:09:09;;;;;;;78.43;16.92;;;;;;;;;;5071652;28;20205;-69
2023/03/06 02:11:36;;;;;;;79.47;16.48;;;;;;;;;;5070030;28;20209;-69
2023/03/06 02:14:03;;;;;;;79.70;17.83;;;;;;;;;;5072860;28;20209;-69
2023/03/06 02:16:33;;;;;;;81.68;17.08;;;;;;;;;;5072310;28;20229;-69
2023/03/06 02:19:01;;;;;;;79.57;16.50;;;;;;;;;;5071829;28;20692;-69
2023/03/06 02:21:31;;;;;;;79.05;17.92;;;;;;;;;;5072420;28;20266;-70
2023/03/06 02:24:02;;;;;;;86.10;19.17;;;;;;;;;;5072273;28;20209;-68
2023/03/06 02:26:32;;;;;;;81.05;17.85;;;;;;;;;;5072198;28;20597;-69
2023/03/06 02:28:59;;;;;;;83.07;19.20;;;;;;;;;;5071270;28;20208;-69
2023/03/06 02:31:27;;;;;;;83.60;18.75;;;;;;;;;;5071464;28;20212;-69
2023/03/06 02:34:01;;;;;;;87.32;20.98;;;;;;;;;;5072069;28;20206;-69
2023/03/06 02:36:29;;;;;;;80.22;18.63;;;;;;;;;;5072019;28;20229;-69
2023/03/06 02:38:56;;;;;;;86.47;19.33;;;;;;;;;;5071758;28;20209;-69
2023/03/06 02:41:23;;;;;;;86.13;19.23;;;;;;;;;;5072051;28;20463;-69
2023/03/06 02:43:52;;;;;;;82.95;17.88;;;;;;;;;;5069261;28;20201;-69
2023/03/06 02:46:19;;;;;;;83.35;18.55;;;;;;;;;;5071741;28;20225;-70
2023/03/06 02:48:46;;;;;;;81.93;19.38;;;;;;;;;;5071026;28;20205;-69
2023/03/06 02:51:14;;;;;;;90.28;18.38;;;;;;;;;;5071017;28;20685;-70
2023/03/06 02:53:41;;;;;;;81.22;17.83;;;;;;;;;;5070827;28;20681;-71
2023/03/06 02:56:08;;;;;;;81.75;18.90;;;;;;;;;;5049907;28;20231;-70
2023/03/06 02:58:36;;;;;;;82.30;17.38;;;;;;;;;;5051330;28;20209;-69
2023/03/06 03:01:04;;;;;;;78.80;18.58;;;;;;;;;;5051792;28;20221;-68
2023/03/06 03:03:32;;;;;;;84.82;19.45;;;;;;;;;;5051834;28;20235;-68
2023/03/06 03:05:59;;;;;;;79.50;16.80;;;;;;;;;;5051676;28;20601;-68
2023/03/06 03:08:27;;;;;;;78.28;18.63;;;;;;;;;;5050970;28;20205;-69
2023/03/06 03:10:54;;;;;;;80.57;16.20;;;;;;;;;;5050753;28;20205;-70
2023/03/06 03:13:21;;;;;;;81.15;19.58;;;;;;;;;;5051550;28;20206;-69
2023/03/06 03:15:58;;;;;;;79.20;17.13;;;;;;;;;;5067460;28;20236;-70
2023/03/06 03:18:26;;;;;;;82.85;18.30;;;;;;;;;;5071523;28;20282;-69
2023/03/06 03:20:54;;;;;;;79.07;18.05;;;;;;;;;;5070841;28;20700;-69
2023/03/06 03:23:21;;;;;;;78.55;16.98;;;;;;;;;;5071690;28;20205;-68
2023/03/06 03:25:48;;;;;;;83.93;17.95;;;;;;;;;;5071284;28;20233;-69
2023/03/06 03:28:15;;;;;;;81.80;18.52;;;;;;;;;;5071274;28;20231;-69
2023/03/06 03:30:43;;;;;;;86.57;19.85;;;;;;;;;;5070582;28;20211;-70
2023/03/06 03:33:10;;;;;;;81.72;18.30;;;;;;;;;;5071157;28;20205;-69
2023/03/06 03:35:38;;;;;;;84.00;18.73;;;;;;;;;;5071161;28;20604;-70
2023/03/06 03:38:05;;;;;;;82.43;17.75;;;;;;;;;;5071354;28;20229;-69
2023/03/06 03:40:32;;;;;;;79.30;17.75;;;;;;;;;;5071087;28;20555;-68
2023/03/06 03:42:59;;;;;;;80.25;17.17;;;;;;;;;;5071564;28;20205;-69
2023/03/06 03:45:27;;;;;;;79.00;17.55;;;;;;;;;;5070917;28;20229;-69
2023/03/06 03:47:54;;;;;;;77.80;16.70;;;;;;;;;;5068966;28;20223;-69
2023/03/06 03:50:21;;;;;;;80.93;18.40;;;;;;;;;;5070318;28;20287;-69
2023/03/06 03:52:49;;;;;;;84.63;19.02;;;;;;;;;;5070820;28;20311;-69
2023/03/06 03:55:16;;;;;;;80.93;17.10;;;;;;;;;;5071219;28;20232;-69
2023/03/06 03:57:43;;;;;;;75.47;15.80;;;;;;;;;;5071147;28;20546;-69
2023/03/06 04:00:15;;;;;;;82.95;18.13;;;;;;;;;;5070764;28;20208;-69
2023/03/06 04:02:42;;;;;;;78.43;16.27;;;;;;;;;;5072482;28;20211;-69
2023/03/06 04:05:09;;;;;;;83.40;18.10;;;;;;;;;;5075094;28;20204;-68
2023/03/06 04:07:36;;;;;;;79.63;17.73;;;;;;;;;;5074835;28;20208;-69
2023/03/06 04:10:05;;;;;;;85.35;18.67;;;;;;;;;;5073871;28;20216;-70
2023/03/06 04:12:32;;;;;;;84.30;16.90;;;;;;;;;;5074347;28;20703;-69
2023/03/06 04:15:00;;;;;;;82.13;18.25;;;;;;;;;;5074618;28;20212;-69
2023/03/06 04:17:27;;;;;;;82.93;17.75;;;;;;;;;;5074442;28;20249;-69
2023/03/06 04:19:54;;;;;;;77.97;17.70;;;;;;;;;;5072390;28;20212;-71
2023/03/06 04:22:21;;;;;;;78.95;16.63;;;;;;;;;;5074654;28;20318;-69
2023/03/06 04:24:48;;;;;;;80.00;16.95;;;;;;;;;;5074567;28;20208;-70
2023/03/06 04:27:17;;;;;;;85.65;18.75;;;;;;;;;;5074676;28;20229;-69
2023/03/06 04:29:44;;;;;;;80.28;16.98;;;;;;;;;;5073607;28;20504;-68
2023/03/06 04:32:11;;;;;;;81.78;20.30;;;;;;;;;;5073884;28;20215;-69
2023/03/06 04:34:38;;;;;;;81.90;19.10;;;;;;;;;;5074238;28;20211;-69
2023/03/06 04:37:05;;;;;;;78.65;18.45;;;;;;;;;;5074260;28;20582;-69
2023/03/06 04:39:32;;;;;;;86.78;19.98;;;;;;;;;;5074128;28;20208;-69
2023/03/06 04:42:00;;;;;;;81.03;18.52;;;;;;;;;;5074158;28;20677;-69
2023/03/06 04:44:28;;;;;;;80.95;17.50;;;;;;;;;;5074411;28;20209;-69
2023/03/06 04:46:55;;;;;;;84.25;18.73;;;;;;;;;;5074043;28;20221;-69
2023/03/06 04:49:22;;;;;;;79.38;18.65;;;;;;;;;;5073834;28;20231;-69
2023/03/06 04:51:49;;;;;;;84.65;19.48;;;;;;;;;;5071538;28;20202;-69
2023/03/06 04:54:16;;;;;;;85.75;19.83;;;;;;;;;;5073538;28;20677;-68
2023/03/06 04:56:43;;;;;;;85.65;19.83;;;;;;;;;;5073778;28;20225;-69
2023/03/06 04:59:11;;;;;;;82.07;17.85;;;;;;;;;;5073675;28;20300;-69
2023/03/06 05:01:39;;;;;;;85.30;18.95;;;;;;;;;;5073921;28;20208;-68
2023/03/06 05:04:06;;;;;;;80.40;17.55;;;;;;;;;;5073858;28;20209;-69
2023/03/06 05:06:33;;;;;;;86.65;20.02;;;;;;;;;;5073778;28;20228;-69
2023/03/06 05:09:00;;;;;;;79.30;18.15;;;;;;;;;;5073175;28;20209;-69
2023/03/06 05:11:27;;;;;;;86.03;20.67;;;;;;;;;;5073360;28;20578;-69
2023/03/06 05:13:55;;;;;;;82.80;18.40;;;;;;;;;;5072928;28;20591;-69
2023/03/06 05:16:22;;;;;;;78.50;17.27;;;;;;;;;;5073768;28;20225;-69
2023/03/06 05:18:50;;;;;;;87.45;20.25;;;;;;;;;;5073115;28;20246;-69
2023/03/06 05:21:17;;;;;;;84.18;18.55;;;;;;;;;;5073459;28;20208;-69
2023/03/06 05:23:44;;;;;;;84.07;18.95;;;;;;;;;;5071174;28;20693;-69
2023/03/06 05:26:12;;;;;;;82.90;18.20;;;;;;;;;;5073270;28;20237;-69
2023/03/06 05:28:39;;;;;;;82.00;19.77;;;;;;;;;;5073243;28;20582;-69
2023/03/06 05:31:07;;;;;;;85.53;18.42;;;;;;;;;;5073182;28;20201;-69
2023/03/06 05:33:35;;;;;;;84.65;17.92;;;;;;;;;;5072505;28;20209;-70
2023/03/06 05:36:03;;;;;;;82.78;16.70;;;;;;;;;;5073144;28;20229;-69
2023/03/06 05:38:31;;;;;;;82.68;19.65;;;;;;;;;;5072749;28;20225;-69
2023/03/06 05:40:58;;;;;;;83.57;18.10;;;;;;;;;;5073076;28;20223;-68
2023/03/06 05:43:25;;;;;;;79.60;18.55;;;;;;;;;;5073253;28;20205;-69
2023/03/06 05:46:00;;;;;;;80.70;18.70;;;;;;;;;;5073094;28;20248;-70
2023/03/06 05:48:27;;;;;;;88.72;18.80;;;;;;;;;;5073067;28;20207;-69
2023/03/06 05:50:55;;;;;;;82.43;17.98;;;;;;;;;;5072468;28;20213;-69
2023/03/06 05:53:25;;;;;;;83.78;18.58;;;;;;;;;;5072374;28;20205;-70
2023/03/06 05:55:58;;;;;;;85.20;19.33;;;;;;;;;;5069951;28;20231;-69
2023/03/06 05:58:26;;;;;;;88.45;20.20;;;;;;;;;;5072777;28;20229;-69
2023/03/06 06:00:53;;;;;;;82.20;19.35;;;;;;;;;;5072423;28;20209;-70
2023/03/06 06:03:20;;;;;;;83.70;20.08;;;;;;;;;;5072494;28;20206;-69
2023/03/06 06:05:47;;;;;;;82.45;19.95;;;;;;;;;;5072388;28;20264;-69
2023/03/06 06:08:14;;;;;;;79.35;17.35;;;;;;;;;;5072617;28;20207;-69
2023/03/06 06:10:43;;;;;;;80.43;17.20;;;;;;;;;;5072309;28;20201;-69
2023/03/06 06:13:11;;;;;;;79.00;17.65;;;;;;;;;;5071845;28;20212;-69
2023/03/06 06:15:39;;;;;;;82.10;18.35;;;;;;;;;;5072179;28;20232;-68
2023/03/06 06:18:06;;;;;;;91.00;20.48;;;;;;;;;;5071701;28;20232;-70
2023/03/06 06:20:34;;;;;;;88.30;20.52;;;;;;;;;;5071516;28;20216;-69
2023/03/06 06:23:01;;;;;;;81.22;19.23;;;;;;;;;;5072137;28;20239;-69
2023/03/06 06:25:28;;;;;;;87.65;17.75;;;;;;;;;;5071233;28;20237;-69
2023/03/06 06:27:57;;;;;;;83.28;19.90;;;;;;;;;;5069778;28;20209;-68
2023/03/06 06:30:24;;;;;;;85.80;19.92;;;;;;;;;;5071618;28;20240;-69
2023/03/06 06:32:51;;;;;;;84.05;19.83;;;;;;;;;;5071773;28;20656;-68
2023/03/06 06:35:18;;;;;;;91.72;19.90;;;;;;;;;;5071712;28;20229;-68
2023/03/06 06:37:45;;;;;;;81.28;18.02;;;;;;;;;;5071937;28;20367;-68
2023/03/06 06:40:13;;;;;;;82.32;19.35;;;;;;;;;;5071963;28;20205;-68
2023/03/06 06:42:40;;;;;;;84.95;20.38;;;;;;;;;;5071991;28;20292;-70
2023/03/06 06:45:10;;;;;;;83.78;18.90;;;;;;;;;;5071716;28;20213;-68
2023/03/06 06:47:39;;;;;;;81.20;19.13;;;;;;;;;;5071634;28;20587;-68
2023/03/06 06:50:08;;;;;;;79.38;18.15;;;;;;;;;;5071497;28;20231;-68
2023/03/06 06:52:35;;;;;;;80.68;19.15;;;;;;;;;;5071720;28;20215;-70
2023/03/06 06:55:02;;;;;;;85.35;20.30;;;;;;;;;;5071473;28;20224;-72
2023/03/06 06:57:29;;;;;;;86.32;19.55;;;;;;;;;;5071291;28;20231;-70
2023/03/06 06:59:56;;;;;;;85.28;21.10;;;;;;;;;;5069202;28;20224;-71
2023/03/06 07:02:25;;;;;;;82.70;18.98;;;;;;;;;;5071984;28;20207;-70
2023/03/06 07:04:52;;;;;;;84.45;21.42;;;;;;;;;;5071685;28;20215;-70
2023/03/06 07:07:19;;;;;;;85.97;20.63;;;;;;;;;;5071428;28;20713;-69
2023/03/06 07:09:46;;;;;;;83.20;19.20;;;;;;;;;;5071329;28;20205;-69
2023/03/06 07:12:13;;;;;;;83.00;17.73;;;;;;;;;;5071104;28;20201;-70
2023/03/06 07:14:41;;;;;;;81.05;18.85;;;;;;;;;;5071006;28;20564;-69
2023/03/06 07:17:08;;;;;;;83.40;19.10;;;;;;;;;;5071071;28;20713;-69
2023/03/06 07:19:36;;;;;;;81.05;18.38;;;;;;;;;;5070983;28;20229;-70
2023/03/06 07:22:04;;;;;;;82.75;18.30;;;;;;;;;;5071529;28;20227;-69
2023/03/06 07:24:31;;;;;;;85.60;17.67;;;;;;;;;;5071184;28;20213;-69
2023/03/06 07:26:58;;;;;;;83.00;18.88;;;;;;;;;;5071125;28;20233;-69
2023/03/06 07:29:25;;;;;;;81.07;17.98;;;;;;;;;;5068976;28;20433;-69
2023/03/06 07:31:52;;;;;;;81.40;18.35;;;;;;;;;;5071219;28;20696;-69
2023/03/06 07:34:19;;;;;;;80.85;18.27;;;;;;;;;;5070675;28;20219;-70
2023/03/06 07:36:49;;;;;;;85.13;19.48;;;;;;;;;;5071190;28;20596;-70
2023/03/06 07:39:16;;;;;;;83.95;19.20;;;;;;;;;;5075562;28;20225;-69
2023/03/06 07:41:43;;;;;;;79.57;17.50;;;;;;;;;;5075373;28;20273;-71
2023/03/06 07:44:11;;;;;;;82.43;18.00;;;;;;;;;;5075427;28;20585;-70
2023/03/06 07:46:38;;;;;;;80.20;19.23;;;;;;;;;;5075020;28;20227;-70
2023/03/06 07:49:05;;;;;;;82.03;18.95;;;;;;;;;;5075011;28;20193;-70
2023/03/06 07:51:32;;;;;;;78.45;17.58;;;;;;;;;;5075027;28;20205;-70
2023/03/06 07:54:00;;;;;;;82.07;18.50;;;;;;;;;;5074399;28;20209;-70
2023/03/06 07:56:28;;;;;;;77.65;17.27;;;;;;;;;;5074612;28;21025;-70
2023/03/06 07:58:55;;;;;;;79.10;17.50;;;;;;;;;;5074830;28;20225;-68
2023/03/06 08:01:23;;;;;;;81.23;17.73;;;;;;;;;;5074824;28;20538;-68
2023/03/06 08:03:50;;;;;;;76.97;16.53;;;;;;;;;;5074802;28;20847;-67
2023/03/06 08:06:18;;;;;;;83.25;18.95;;;;;;;;;;5071609;28;20455;-69
2023/03/06 08:08:46;;;;;;;77.37;17.70;;;;;;;;;;5074741;28;20213;-68
2023/03/06 08:11:16;;;;;;;81.30;18.40;;;;;;;;;;5074889;28;20443;-68
2023/03/06 08:13:43;;;;;;;83.82;17.50;;;;;;;;;;5074281;28;20235;-68
2023/03/06 08:16:10;;;;;;;79.73;13.93;;;;;;;;;;5074172;28;20320;-68
2023/03/06 08:18:38;;;;;;;69.35;10.20;;;;;;;;;;5074228;28;20505;-68
2023/03/06 08:21:06;;;;;;;68.25;10.10;;;;;;;;;;5074488;28;20213;-68
2023/03/06 08:23:34;;;;;;;68.87;10.80;;;;;;;;;;5074592;28;20201;-68
2023/03/06 08:26:02;;;;;;;66.85;10.20;;;;;;;;;;5074288;28;20501;-68
2023/03/06 08:28:30;;;;;;;66.10;9.00;;;;;;;;;;5074304;28;20690;-69
2023/03/06 08:30:58;;;;;;;65.97;8.93;;;;;;;;;;5074355;28;20451;-69
2023/03/06 08:33:26;;;;;;;69.07;8.73;;;;;;;;;;5073981;28;20585;-68
2023/03/06 08:35:54;;;;;;;65.90;8.95;;;;;;;;;;5074329;28;20466;-68
2023/03/06 08:38:21;;;;;;;67.50;9.83;;;;;;;;;;5072652;28;20237;-68
2023/03/06 08:40:48;;;;;;;65.67;9.07;;;;;;;;;;5073954;28;20463;-68
2023/03/06 08:43:15;;;;;;;69.23;9.80;;;;;;;;;;5074190;28;20459;-68
2023/03/06 08:45:43;;;;;;;64.78;9.07;;;;;;;;;;5074253;28;20983;-68
2023/03/06 08:48:10;;;;;;;65.70;8.90;;;;;;;;;;5073239;28;20205;-68
2023/03/06 08:50:38;;;;;;;65.57;8.70;;;;;;;;;;5074083;28;20247;-68
2023/03/06 08:53:05;;;;;;;66.27;8.60;;;;;;;;;;5073470;28;20209;-67
2023/03/06 08:55:32;;;;;;;64.13;8.20;;;;;;;;;;5073486;28;20476;-68
2023/03/06 08:58:00;;;;;;;64.73;8.40;;;;;;;;;;5073630;28;20201;-68
2023/03/06 09:00:28;;;;;;;65.20;7.90;;;;;;;;;;5073631;28;20455;-68
2023/03/06 09:02:56;;;;;;;69.07;9.40;;;;;;;;;;5074155;28;20947;-68
2023/03/06 09:05:23;;;;;;;65.97;8.80;;;;;;;;;;5073875;28;20456;-68
2023/03/06 09:07:50;;;;;;;63.88;8.80;;;;;;;;;;5073593;28;20447;-68
2023/03/06 09:10:19;;;;;;;68.27;9.30;;;;;;;;;;5071209;28;20216;-67
2023/03/06 09:12:46;;;;;;;68.10;9.27;;;;;;;;;;5073488;28;20563;-67
2023/03/06 09:15:13;;;;;;;66.27;10.03;;;;;;;;;;5072703;28;20201;-67
2023/03/06 09:17:41;;;;;;;65.80;9.17;;;;;;;;;;5073533;28;20454;-68
2023/03/06 09:20:11;;;;;;;64.90;9.07;;;;;;;;;;5073141;28;20489;-68
2023/03/06 09:22:41;;;;;;;67.55;9.05;;;;;;;;;;5073546;28;20448;-68
2023/03/06 09:25:09;;;;;;;69.47;9.30;;;;;;;;;;5073007;28;20266;-67
2023/03/06 09:27:36;;;;;;;67.67;10.00;;;;;;;;;;5073182;28;20462;-68
2023/03/06 09:30:03;;;;;;;66.83;9.57;;;;;;;;;;5073101;28;20530;-68
2023/03/06 09:32:30;;;;;;;69.87;8.93;;;;;;;;;;5073414;28;20631;-68
2023/03/06 09:34:58;;;;;;;65.10;8.63;;;;;;;;;;5072516;28;20944;-68
2023/03/06 09:37:27;;;;;;;65.27;8.60;;;;;;;;;;5073281;28;20479;-67
2023/03/06 09:39:54;;;;;;;64.70;9.03;;;;;;;;;;5072812;28;20494;-68
2023/03/06 09:42:23;;;;;;;64.47;8.60;;;;;;;;;;5070675;28;20448;-68
2023/03/06 09:44:52;;;;;;;65.07;8.05;;;;;;;;;;5072743;28;20454;-68
2023/03/06 09:47:24;;;;;;;63.75;8.82;;;;;;;;;;5072940;28;20225;-67
2023/03/06 09:49:57;;;;;;;68.30;8.07;;;;;;;;;;5071967;28;20690;-67
2023/03/06 09:52:34;;;;;;;65.47;8.25;;;;;;;;;;5072509;28;20209;-67
2023/03/06 09:55:03;;;;;;;65.75;8.32;;;;;;;;;;5072378;28;20277;-68
2023/03/06 09:57:34;;;;;;;67.32;9.10;;;;;;;;;;5072674;28;20209;-68
2023/03/06 10:00:03;;;;;;;63.75;8.07;;;;;;;;;;5071381;28;20323;-67
2023/03/06 10:02:33;;;;;;;66.53;8.70;;;;;;;;;;5072710;28;20212;-68
2023/03/06 10:05:02;;;;;;;64.78;9.07;;;;;;;;;;5072352;28;20205;-67
2023/03/06 10:07:39;;;;;;;71.53;9.73;;;;;;;;;;5072741;28;20284;-68
2023/03/06 10:10:07;;;;;;;66.28;8.50;;;;;;;;;;5072174;28;20212;-67
2023/03/06 10:12:36;;;;;;;65.15;8.32;;;;;;;;;;5069500;28;20217;-67
2023/03/06 10:15:08;;;;;;;66.15;8.73;;;;;;;;;;5071946;28;20209;-67
2023/03/06 10:17:36;;;;;;;69.28;10.07;;;;;;;;;;5071833;28;20205;-67
2023/03/06 10:20:10;;;;;;;68.13;8.77;;;;;;;;;;5071849;28;20282;-67
2023/03/06 10:22:40;;;;;;;67.60;9.77;;;;;;;;;;5052491;28;20209;-67
2023/03/06 10:25:13;;;;;;;66.87;9.87;;;;;;;;;;5052009;28;20464;-67
2023/03/06 10:27:45;;;;;;;66.27;9.37;;;;;;;;;;5052273;28;20448;-68
2023/03/06 10:30:21;;;;;;;67.10;9.88;;;;;;;;;;5051466;28;20933;-68
2023/03/06 10:32:54;;;;;;;65.07;8.82;;;;;;;;;;5051977;28;20216;-67
2023/03/06 10:35:22;;;;;;;67.73;9.27;;;;;;;;;;5051834;28;20268;-67
2023/03/06 10:37:51;;;;;;;66.10;9.17;;;;;;;;;;5051776;28;20460;-68
2023/03/06 10:40:19;;;;;;;65.87;8.90;;;;;;;;;;5051435;28;20498;-68
2023/03/06 10:42:46;;;;;;;66.22;9.55;;;;;;;;;;5051648;28;20449;-69
2023/03/06 10:45:14;;;;;;;68.00;10.80;;;;;;;;;;5069094;28;20561;-68
2023/03/06 10:47:42;;;;;;;66.70;9.23;;;;;;;;;;5072009;28;20936;-68
2023/03/06 10:50:21;;;;;;;66.80;9.40;;;;;;;;;;5071018;28;20451;-68
2023/03/06 10:52:58;;;;;;;64.05;8.50;;;;;;;;;;5071619;28;20450;-68
2023/03/06 10:55:29;;;;;;;65.67;9.07;;;;;;;;;;5071496;28;20220;-69
2023/03/06 10:57:56;;;;;;;68.00;9.53;;;;;;;;;;5071355;28;20443;-68
2023/03/06 11:00:26;;;;;;;65.90;9.20;;;;;;;;;;5071054;28;20491;-69
2023/03/06 11:03:05;;;;;;;64.83;9.10;;;;;;;;;;5071694;28;20940;-69
2023/03/06 11:05:32;;;;;;;66.27;9.10;;;;;;;;;;5071333;28;20459;-68
2023/03/06 11:08:00;;;;;;;67.10;10.00;;;;;;;;;;5071714;28;20461;-67
2023/03/06 11:10:30;;;;;;;65.80;9.70;;;;;;;;;;5071155;28;20205;-69
2023/03/06 11:12:58;;;;;;;68.10;9.63;;;;;;;;;;5071159;28;20443;-67
2023/03/06 11:15:26;;;;;;;65.30;9.37;;;;;;;;;;5068401;28;20582;-67
2023/03/06 11:17:56;;;;;;;64.90;9.07;;;;;;;;;;5071144;28;20451;-68
2023/03/06 11:20:24;;;;;;;66.73;8.77;;;;;;;;;;5071042;28;20519;-68
2023/03/06 11:22:53;;;;;;;64.07;7.73;;;;;;;;;;5071731;28;20455;-67
2023/03/06 11:25:22;;;;;;;64.20;8.33;;;;;;;;;;5071413;28;20522;-68
2023/03/06 11:27:53;;;;;;;64.80;9.23;;;;;;;;;;5071388;28;21022;-68
2023/03/06 11:30:25;;;;;;;69.50;8.50;;;;;;;;;;5070891;28;20478;-68
2023/03/06 11:32:54;;;;;;;64.27;9.07;;;;;;;;;;5071087;28;20458;-69
2023/03/06 11:35:22;;;;;;;64.40;7.80;;;;;;;;;;5071042;28;21002;-69
2023/03/06 11:37:52;;;;;;;67.00;9.07;;;;;;;;;;5070960;28;20455;-69
2023/03/06 11:40:22;;;;;;;66.80;9.07;;;;;;;;;;5070707;28;20485;-69
2023/03/06 11:42:54;;;;;;;66.50;8.43;;;;;;;;;;5071243;28;20457;-69
2023/03/06 11:45:30;;;;;;;65.30;9.30;;;;;;;;;;5071108;28;20478;-69
2023/03/06 11:48:02;;;;;;;67.00;9.73;;;;;;;;;;5069341;28;20542;-69
2023/03/06 11:50:32;;;;;;;64.17;8.17;;;;;;;;;;5070813;28;20469;-70
2023/03/06 11:53:00;;;;;;;66.27;8.10;;;;;;;;;;5071066;28;20457;-69
2023/03/06 11:55:32;;;;;;;65.17;8.70;;;;;;;;;;5070694;28;20472;-70
2023/03/06 11:58:12;;;;;;;66.07;9.10;;;;;;;;;;5070635;28;20886;-69
2023/03/06 12:00:46;;;;;;;65.57;8.73;;;;;;;;;;5070632;28;20578;-69
2023/03/06 12:03:28;;;;;;;65.40;8.97;;;;;;;;;;5071210;28;20478;-70
2023/03/06 12:06:01;;;;;;;68.60;8.80;;;;;;;;;;5058026;28;21038;-69
2023/03/06 12:08:35;;;;;;;64.20;8.50;;;;;;;;;;5071020;28;20489;-69
2023/03/06 12:11:05;;;;;;;65.57;9.30;;;;;;;;;;5070679;28;20446;-69
2023/03/06 12:13:38;;;;;;;65.50;9.23;;;;;;;;;;5070859;28;20789;-69
2023/03/06 12:16:21;;;;;;;64.20;8.00;;;;;;;;;;5070447;28;20501;-69
2023/03/06 12:18:53;;;;;;;64.60;7.87;;;;;;;;;;5068521;28;20550;-69
2023/03/06 12:21:24;;;;;;;64.80;8.00;;;;;;;;;;5068560;28;20439;-69
2023/03/06 12:24:08;;;;;;;63.00;7.73;;;;;;;;;;5072775;28;20453;-69
2023/03/06 12:26:42;;;;;;;64.70;8.33;;;;;;;;;;5074419;28;20478;-69
2023/03/06 12:29:19;;;;;;;64.60;8.30;;;;;;;;;;5074411;28;20787;-69
2023/03/06 12:31:51;;;;;;;66.80;8.73;;;;;;;;;;5074373;28;20451;-70
2023/03/06 12:34:25;;;;;;;67.20;8.03;;;;;;;;;;5074356;28;20458;-69
2023/03/06 12:37:01;;;;;;;65.70;9.27;;;;;;;;;;5074138;28;20790;-69
2023/03/06 12:39:35;;;;;;;64.53;8.53;;;;;;;;;;5073720;28;20479;-69
2023/03/06 12:42:06;;;;;;;65.07;8.70;;;;;;;;;;5074143;28;20476;-69
2023/03/06 12:44:41;;;;;;;65.70;9.53;;;;;;;;;;5074268;28;20538;-69
2023/03/06 12:47:10;;;;;;;65.00;8.90;;;;;;;;;;5074034;28;20501;-68
2023/03/06 12:49:38;;;;;;;67.10;8.53;;;;;;;;;;5073641;28;20446;-69
2023/03/06 12:52:06;;;;;;;67.13;8.80;;;;;;;;;;5072048;28;20462;-69
2023/03/06 12:54:35;;;;;;;63.77;7.83;;;;;;;;;;5073861;28;20447;-69
2023/03/06 12:57:03;;;;;;;65.60;9.47;;;;;;;;;;5073217;28;20463;-69
2023/03/06 12:59:39;;;;;;;67.63;9.93;;;;;;;;;;5073416;28;20479;-69
2023/03/06 13:02:18;;;;;;;67.27;9.60;;;;;;;;;;5073413;28;20461;-69
2023/03/06 13:04:48;;;;;;;64.10;8.83;;;;;;;;;;5074158;28;20451;-68
2023/03/06 13:07:21;;;;;;;67.57;10.67;;;;;;;;;;5073855;28;20838;-69
2023/03/06 13:10:02;;;;;;;68.37;10.93;;;;;;;;;;5073517;28;20451;-69
2023/03/06 13:12:39;;;;;;;66.43;9.50;;;;;;;;;;5073455;28;20470;-69
2023/03/06 13:15:25;;;;;;;66.03;10.63;;;;;;;;;;5073384;28;20447;-68
2023/03/06 13:17:53;;;;;;;68.23;9.80;;;;;;;;;;5073070;28;20447;-69
2023/03/06 13:20:28;;;;;;;67.57;10.47;;;;;;;;;;5073104;28;20483;-68
2023/03/06 13:22:55;;;;;;;65.93;9.93;;;;;;;;;;5073168;28;20446;-69
2023/03/06 13:25:35;;;;;;;67.53;10.13;;;;;;;;;;5071113;28;20546;-69
2023/03/06 13:28:03;;;;;;;66.97;10.87;;;;;;;;;;5073420;28;20458;-69
2023/03/06 13:30:43;;;;;;;64.20;7.67;;;;;;;;;;5073249;28;20453;-68
2023/03/06 13:33:40;;;;;;;63.63;8.40;;;;;;;;;;5073101;28;20443;-68
2023/03/06 13:36:25;;;;;;;63.63;8.10;;;;;;;;;;5010667;28;20498;-69
2023/03/06 13:39:10;;;;;;;64.90;8.23;;;;;;;;;;5065047;28;20456;-69
2023/03/06 13:41:52;;;;;;;70.43;7.40;;;;;;;;;;5072636;28;20483;-70
2023/03/06 13:44:47;;;;;;;64.33;8.03;;;;;;;;;;5073183;28;20442;-68
2023/03/06 13:47:35;;;;;;;66.27;8.17;;;;;;;;;;5072971;28;20883;-70
2023/03/06 13:50:12;;;;;;;66.33;9.10;;;;;;;;;;5067667;28;20451;-70
2023/03/06 13:52:43;;;;;;;62.60;6.80;;;;;;;;;;5073117;28;20443;-69
2023/03/06 13:55:15;;;;;;;66.33;8.30;;;;;;;;;;5072536;28;20949;-68
2023/03/06 13:57:47;;;;;;;64.97;7.63;;;;;;;;;;5072197;28;20447;-68
2023/03/06 14:00:19;;;;;;;64.40;7.57;;;;;;;;;;5072100;28;21017;-69
2023/03/06 14:02:55;;;;;;;65.37;7.80;;;;;;;;;;5072541;28;20451;-70
2023/03/06 14:05:22;;;;;;;62.40;7.13;;;;;;;;;;5072932;28;20816;-67
2023/03/06 14:08:03;;;;;;;65.00;8.43;;;;;;;;;;5072429;28;20943;-68
2023/03/06 14:10:31;;;;;;;65.83;7.57;;;;;;;;;;5072449;28;20462;-70
2023/03/06 14:13:01;;;;;;;63.20;7.23;;;;;;;;;;5072365;28;20822;-69
2023/03/06 14:15:32;;;;;;;65.03;7.37;;;;;;;;;;5072162;28;20471;-70
2023/03/06 14:18:01;;;;;;;61.83;6.60;;;;;;;;;;5071871;28;20447;-70
2023/03/06 14:20:33;;;;;;;65.73;7.67;;;;;;;;;;5072164;28;20849;-68
2023/03/06 14:23:22;;;;;;;65.50;7.80;;;;;;;;;;5072300;28;20454;-69
2023/03/06 14:25:54;;;;;;;63.47;7.03;;;;;;;;;;5072062;28;20483;-70
2023/03/06 14:28:22;;;;;;;63.27;7.57;;;;;;;;;;5072289;28;20448;-68
2023/03/06 14:30:50;;;;;;;65.40;7.93;;;;;;;;;;5071929;28;21066;-69
2023/03/06 14:33:28;;;;;;;65.20;7.57;;;;;;;;;;5071911;28;20447;-70